createdAt,value
2022-12-20T00:01:57.111Z,99285.69
2022-12-20T00:04:25.032Z,99270.75
2022-12-20T00:06:53.025Z,99267.84
2022-12-20T00:09:20.967Z,99265.16
2022-12-20T00:11:48.949Z,99269.06
2022-12-20T00:14:16.855Z,99265.94
2022-12-20T00:16:45.022Z,99261.22
2022-12-20T00:19:14.413Z,99256.84
2022-12-20T00:21:42.309Z,99253.59
2022-12-20T00:24:11.514Z,99251.44
2022-12-20T00:26:39.522Z,99247.06
2022-12-20T00:29:09.747Z,99231.78
2022-12-20T00:31:37.638Z,99230.56
2022-12-20T00:34:05.779Z,99233.16
2022-12-20T00:36:35.079Z,99235.03
2022-12-20T00:39:05.929Z,99240.47
2022-12-20T00:41:35.638Z,99243.16
2022-12-20T00:44:04.227Z,99237.97
2022-12-20T00:46:35.636Z,99241.25
2022-12-20T00:49:03.735Z,99240.03
2022-12-20T00:51:32.819Z,99246.56
2022-12-20T00:54:04.543Z,99241.19
2022-12-20T00:56:34.488Z,99249.44
2022-12-20T00:59:11.592Z,99252.41
2022-12-20T01:01:39.699Z,99231.06
2022-12-20T01:04:10.204Z,99235.16
2022-12-20T01:06:38.709Z,99242.84
2022-12-20T01:09:07.984Z,99240.88
2022-12-20T01:11:38.093Z,99249.88
2022-12-20T01:14:12.029Z,99251.16
2022-12-20T01:16:42.987Z,99259.16
2022-12-20T01:19:13.382Z,99257.44
2022-12-20T01:21:45.352Z,99270.56
2022-12-20T01:24:15.954Z,99271.38
2022-12-20T01:26:44.224Z,99269.34
2022-12-20T01:29:12.635Z,99260.59
2022-12-20T01:31:41.369Z,99258.31
2022-12-20T01:34:09.341Z,99247.84
2022-12-20T01:36:39.137Z,99246.13
2022-12-20T01:39:10.550Z,99246.06
2022-12-20T01:41:44.845Z,99238.78
2022-12-20T01:44:42.454Z,99241.53
2022-12-20T01:47:11.055Z,99228.84
2022-12-20T01:49:45.350Z,99238.47
2022-12-20T01:52:16.400Z,99225.16
2022-12-20T01:54:48.113Z,99233.75
2022-12-20T01:57:22.279Z,99236.19
2022-12-20T01:59:53.070Z,99234.41
2022-12-20T02:02:21.658Z,99235.16
2022-12-20T02:04:49.585Z,99237.09
2022-12-20T02:07:22.466Z,99207.66
2022-12-20T02:09:50.847Z,99209.53
2022-12-20T02:12:23.659Z,99205.97
2022-12-20T02:15:05.449Z,99213.34
2022-12-20T02:17:46.389Z,99197.63
2022-12-20T02:20:36.223Z,99211.19
2022-12-20T02:23:32.004Z,99205.69
2022-12-20T02:26:16.671Z,99195.75
2022-12-20T02:29:09.544Z,99200.56
2022-12-20T02:31:44.149Z,99199.78
2022-12-20T02:34:13.819Z,99187.75
2022-12-20T02:36:41.809Z,99191.28
2022-12-20T02:39:11.152Z,99190.78
2022-12-20T02:41:43.465Z,99189.44
2022-12-20T02:44:33.146Z,99189.81
2022-12-20T02:47:10.607Z,99182.66
2022-12-20T02:49:42.309Z,99170.34
2022-12-20T02:52:13.876Z,99188.66
2022-12-20T02:54:42.690Z,99195.22
2022-12-20T02:57:17.961Z,99180.75
2022-12-20T02:59:52.703Z,99166.34
2022-12-20T03:02:22.502Z,99161.34
2022-12-20T03:04:55.316Z,99166.25
2022-12-20T03:07:24.079Z,99162.00
2022-12-20T03:09:55.436Z,99159.47
2022-12-20T03:12:23.430Z,99149.78
2022-12-20T03:14:51.568Z,99157.44
2022-12-20T03:17:20.890Z,99149.66
2022-12-20T03:19:48.891Z,99162.16
2022-12-20T03:22:16.745Z,99165.63
2022-12-20T03:24:46.851Z,99154.09
2022-12-20T03:27:17.776Z,99156.38
2022-12-20T03:29:46.094Z,99153.13
2022-12-20T03:32:14.173Z,99147.69
2022-12-20T03:34:46.311Z,99135.78
2022-12-20T03:37:16.374Z,99142.44
2022-12-20T03:39:44.305Z,99138.06
2022-12-20T03:42:12.352Z,99147.00
2022-12-20T03:44:43.086Z,99148.22
2022-12-20T03:47:11.773Z,99144.06
2022-12-20T03:49:39.688Z,99156.47
2022-12-20T03:52:13.405Z,99156.91
2022-12-20T03:54:41.763Z,99147.88
2022-12-20T03:57:13.876Z,99145.00
2022-12-20T03:59:41.909Z,99133.81
2022-12-20T04:02:12.855Z,99127.66
2022-12-20T04:04:40.817Z,99125.94
2022-12-20T04:07:08.939Z,99134.44
2022-12-20T04:09:40.577Z,99131.53
2022-12-20T04:12:12.656Z,99137.88
2022-12-20T04:14:41.074Z,99135.78
2022-12-20T04:17:08.943Z,99124.72
2022-12-20T04:19:38.140Z,99110.63
2022-12-20T04:22:07.319Z,99116.31
2022-12-20T04:24:51.117Z,99127.66
2022-12-20T04:27:27.033Z,99116.06
2022-12-20T04:29:58.342Z,99116.31
2022-12-20T04:32:26.317Z,99125.31
2022-12-20T04:34:54.237Z,99133.03
2022-12-20T04:37:22.348Z,99133.53
2022-12-20T04:39:58.348Z,99117.09
2022-12-20T04:42:46.236Z,99111.94
2022-12-20T04:45:16.071Z,99110.38
2022-12-20T04:47:43.951Z,99107.75
2022-12-20T04:50:14.192Z,99105.00
2022-12-20T04:53:01.680Z,99105.00
2022-12-20T04:55:31.750Z,99097.06
2022-12-20T04:58:07.227Z,99089.28
2022-12-20T05:00:37.447Z,99082.47
2022-12-20T05:03:18.159Z,99087.69
2022-12-20T05:05:46.242Z,99101.16
2022-12-20T05:08:14.289Z,99095.78
2022-12-20T05:10:43.851Z,99088.88
2022-12-20T05:13:12.387Z,99081.78
2022-12-20T05:15:44.296Z,99074.28
2022-12-20T05:18:13.114Z,99080.16
2022-12-20T05:21:15.524Z,99077.03
2022-12-20T05:24:03.651Z,99067.78
2022-12-20T05:26:38.235Z,99073.03
2022-12-20T05:29:08.972Z,99065.47
2022-12-20T05:31:37.344Z,99068.41
2022-12-20T05:34:05.616Z,99068.06
2022-12-20T05:36:36.777Z,99067.34
2022-12-20T05:39:07.152Z,99057.84
2022-12-20T05:41:41.249Z,99060.81
2022-12-20T05:44:10.108Z,99059.91
2022-12-20T05:46:41.844Z,99060.28
2022-12-20T05:49:14.993Z,99060.41
2022-12-20T05:51:43.164Z,99045.97
2022-12-20T05:54:26.197Z,99043.28
2022-12-20T05:57:04.601Z,99034.63
2022-12-20T05:59:36.979Z,99040.72
2022-12-20T06:02:07.276Z,99038.59
2022-12-20T06:04:36.687Z,99047.41
2022-12-20T06:07:11.521Z,99031.38
2022-12-20T06:09:39.411Z,99037.19
2022-12-20T06:12:15.036Z,99049.06
2022-12-20T06:14:43.923Z,99050.66
2022-12-20T06:17:13.771Z,99058.84
2022-12-20T06:19:42.352Z,99052.19
2022-12-20T06:22:12.633Z,99048.09
2022-12-20T06:24:48.235Z,99045.31
2022-12-20T06:27:22.261Z,99048.91
2022-12-20T06:29:58.369Z,99042.38
2022-12-20T06:32:31.460Z,99041.56
2022-12-20T06:34:59.351Z,99048.22
2022-12-20T06:37:27.296Z,99043.13
2022-12-20T06:39:55.301Z,99054.31
2022-12-20T06:42:25.417Z,99054.47
2022-12-20T06:44:55.318Z,99055.00
2022-12-20T06:47:23.299Z,99061.56
2022-12-20T06:49:52.966Z,99056.19
2022-12-20T06:52:23.878Z,99057.81
2022-12-20T06:54:55.624Z,99050.78
2022-12-20T06:57:25.550Z,99053.22
2022-12-20T06:59:55.039Z,99057.84
2022-12-20T07:02:25.298Z,99047.94
2022-12-20T07:04:55.469Z,99045.53
2022-12-20T07:07:23.429Z,99046.84
2022-12-20T07:09:51.204Z,99046.78
2022-12-20T07:12:20.508Z,99056.19
2022-12-20T07:14:49.915Z,99049.63
2022-12-20T07:17:20.130Z,99045.94
2022-12-20T07:19:51.202Z,99043.97
2022-12-20T07:22:19.543Z,99055.00
2022-12-20T07:24:47.624Z,99047.81
2022-12-20T07:27:15.434Z,99045.22
2022-12-20T07:29:43.287Z,99038.59
2022-12-20T07:32:14.399Z,99042.13
2022-12-20T07:34:42.340Z,99042.44
2022-12-20T07:37:11.372Z,99040.69
2022-12-20T07:39:39.246Z,99037.00
2022-12-20T07:42:07.196Z,99039.38
2022-12-20T07:44:43.348Z,99024.50
2022-12-20T07:47:12.957Z,99028.84
2022-12-20T07:49:41.089Z,99023.66
2022-12-20T07:52:11.658Z,99028.16
2022-12-20T07:54:45.967Z,99027.84
2022-12-20T07:57:20.447Z,99020.59
2022-12-20T07:59:52.385Z,99035.56
2022-12-20T08:02:26.905Z,99034.19
2022-12-20T08:04:56.549Z,99041.66
2022-12-20T08:07:25.212Z,99045.28
2022-12-20T08:09:53.460Z,99041.81
2022-12-20T08:12:22.830Z,99034.78
2022-12-20T08:14:52.359Z,99031.00
2022-12-20T08:17:21.563Z,99028.97
2022-12-20T08:19:51.627Z,99027.81
2022-12-20T08:22:20.285Z,99023.22
2022-12-20T08:24:48.185Z,99026.50
2022-12-20T08:27:16.313Z,99021.03
2022-12-20T08:29:45.129Z,99012.22
2022-12-20T08:32:14.273Z,99011.56
2022-12-20T08:34:43.411Z,99007.13
2022-12-20T08:37:15.016Z,99005.13
2022-12-20T08:39:43.278Z,99010.22
2022-12-20T08:42:11.151Z,99004.63
2022-12-20T08:44:39.058Z,99004.31
2022-12-20T08:47:06.828Z,99006.03
2022-12-20T08:49:34.891Z,99004.00
2022-12-20T08:52:04.121Z,98995.22
2022-12-20T08:54:31.922Z,98996.56
2022-12-20T08:56:59.736Z,98991.53
2022-12-20T08:59:27.722Z,98985.91
2022-12-20T09:01:55.819Z,98976.47
2022-12-20T09:04:23.779Z,98982.47
2022-12-20T09:06:51.780Z,98986.13
2022-12-20T09:09:20.988Z,98984.78
2022-12-20T09:11:48.887Z,98985.84
2022-12-20T09:14:17.245Z,98985.44
2022-12-20T09:16:45.140Z,98983.91
2022-12-20T09:19:14.819Z,98973.41
2022-12-20T09:21:42.668Z,98974.00
2022-12-20T09:24:10.568Z,98966.47
2022-12-20T09:26:41.896Z,98966.47
2022-12-20T09:29:09.878Z,98974.78
2022-12-20T09:31:38.552Z,98975.03
2022-12-20T09:34:06.562Z,98969.78
2022-12-20T09:36:34.448Z,98974.34
2022-12-20T09:39:02.306Z,98986.13
2022-12-20T09:41:37.082Z,98982.91
2022-12-20T09:44:15.274Z,98959.69
2022-12-20T09:46:47.756Z,98966.19
2022-12-20T09:49:19.050Z,98967.66
2022-12-20T09:52:02.362Z,98957.13
2022-12-20T09:54:40.575Z,98952.78
2022-12-20T09:57:19.140Z,98960.59
2022-12-20T09:59:50.051Z,98946.78
2022-12-20T10:05:16.976Z,98933.97
2022-12-20T10:07:54.711Z,98931.41
2022-12-20T10:10:41.001Z,98930.47
2022-12-20T10:13:22.850Z,98925.44
2022-12-20T10:16:01.943Z,98936.25
2022-12-20T10:18:46.682Z,98931.41
2022-12-20T10:21:20.736Z,98929.09
2022-12-20T10:24:01.512Z,98933.16
2022-12-20T10:26:30.313Z,98933.72
2022-12-20T10:28:58.059Z,98932.16
2022-12-20T10:31:28.950Z,98932.28
2022-12-20T10:33:57.713Z,98927.63
2022-12-20T10:36:27.745Z,98922.16
2022-12-20T10:38:59.251Z,98925.41
2022-12-20T10:41:29.719Z,98918.84
2022-12-20T10:44:01.286Z,98905.69
2022-12-20T10:46:43.707Z,98905.63
2022-12-20T10:49:41.051Z,98914.09
2022-12-20T10:52:14.489Z,98914.69
2022-12-20T10:54:44.438Z,98903.50
2022-12-20T10:57:20.990Z,98905.97
2022-12-20T10:59:53.982Z,98891.91
2022-12-20T11:02:37.237Z,98891.63
2022-12-20T11:05:23.069Z,98883.53
2022-12-20T11:08:33.554Z,98881.56
2022-12-20T11:10:44.310Z,98884.59
2022-12-20T11:13:22.321Z,98878.47
2022-12-20T11:15:52.423Z,98875.19
2022-12-20T11:18:31.738Z,98869.53
2022-12-20T11:21:16.232Z,98872.34
2022-12-20T11:23:52.951Z,98865.78
2022-12-20T11:26:32.839Z,98857.88
2022-12-20T11:29:18.270Z,98860.03
2022-12-20T11:31:58.193Z,98840.19
2022-12-20T11:34:37.478Z,98851.44
2022-12-20T11:37:20.800Z,98847.22
2022-12-20T11:40:05.434Z,98846.97
2022-12-20T11:42:48.524Z,98844.41
2022-12-20T11:45:24.813Z,98833.97
2022-12-20T11:48:27.948Z,98824.19
2022-12-20T11:51:07.574Z,98808.38
2022-12-20T11:53:45.608Z,98807.28
2022-12-20T11:56:18.785Z,98813.47
2022-12-20T11:58:54.594Z,98801.34
2022-12-20T12:01:26.120Z,98802.91
2022-12-20T12:04:05.556Z,98800.22
2022-12-20T12:06:39.082Z,98812.78
2022-12-20T12:09:17.155Z,98821.53
2022-12-20T12:12:08.223Z,98836.84
2022-12-20T12:14:47.511Z,98826.59
2022-12-20T12:17:25.847Z,98817.34
2022-12-20T12:19:58.130Z,98802.22
2022-12-20T12:22:33.719Z,98800.44
2022-12-20T12:25:07.530Z,98796.59
2022-12-20T12:27:35.856Z,98786.31
2022-12-20T12:30:04.247Z,98776.53
2022-12-20T12:32:39.381Z,98787.59
2022-12-20T12:35:22.962Z,98779.44
2022-12-20T12:38:06.046Z,98778.06
2022-12-20T12:41:00.318Z,98778.66
2022-12-20T12:43:46.858Z,98780.84
2022-12-20T12:46:20.371Z,98782.22
2022-12-20T12:48:55.631Z,98775.31
2022-12-20T12:51:28.696Z,98772.75
2022-12-20T12:54:06.085Z,98773.59
2022-12-20T12:56:44.601Z,98765.41
2022-12-20T12:59:48.040Z,98747.06
2022-12-20T13:02:50.038Z,98736.94
2022-12-20T13:05:37.121Z,98727.44
2022-12-20T13:08:05.898Z,98728.69
2022-12-20T13:11:03.872Z,98736.13
2022-12-20T13:13:31.744Z,98731.00
2022-12-20T13:16:12.384Z,98718.63
2022-12-20T13:18:57.218Z,98716.84
2022-12-20T13:21:44.786Z,98732.38
2022-12-20T13:24:37.662Z,98730.44
2022-12-20T13:27:18.441Z,98729.41
2022-12-20T13:30:13.506Z,98737.19
2022-12-20T13:33:04.490Z,98744.50
2022-12-20T13:35:45.461Z,98745.97
2022-12-20T13:38:39.974Z,98750.22
2022-12-20T13:41:19.187Z,98744.91
2022-12-20T13:43:50.580Z,98731.00
2022-12-20T13:46:25.290Z,98741.66
2022-12-20T13:48:57.001Z,98728.03
2022-12-20T13:51:26.857Z,98730.88
2022-12-20T13:53:59.497Z,98716.63
2022-12-20T13:56:36.300Z,98712.22
2022-12-20T13:59:15.393Z,98722.31
2022-12-20T14:01:50.660Z,98709.34
2022-12-20T14:04:19.856Z,98719.69
2022-12-20T14:06:53.502Z,98703.25
2022-12-20T14:09:29.948Z,98690.47
2022-12-20T14:12:04.686Z,98691.13
2022-12-20T14:14:38.392Z,98688.81
2022-12-20T14:17:19.378Z,98695.63
2022-12-20T14:19:47.370Z,98700.38
2022-12-20T14:22:15.543Z,98702.06
2022-12-20T14:24:46.568Z,98693.63
2022-12-20T14:27:15.660Z,98694.50
2022-12-20T14:29:46.330Z,98685.97
2022-12-20T14:32:20.310Z,98683.09
2022-12-20T14:34:48.810Z,98684.25
2022-12-20T14:37:29.368Z,98680.13
2022-12-20T14:40:00.118Z,98680.97
2022-12-20T14:42:33.807Z,98678.22
2022-12-20T14:45:18.345Z,98679.72
2022-12-20T14:47:57.118Z,98679.69
2022-12-20T14:50:30.395Z,98674.63
2022-12-20T14:53:01.964Z,98689.56
2022-12-20T14:55:36.397Z,98686.13
2022-12-20T14:58:24.011Z,98682.94
2022-12-20T15:01:01.706Z,98675.66
2022-12-20T15:03:30.294Z,98677.56
2022-12-20T15:05:59.839Z,98659.66
2022-12-20T15:08:32.781Z,98654.78
2022-12-20T15:11:04.075Z,98646.47
2022-12-20T15:13:34.336Z,98644.03
2022-12-20T15:16:05.878Z,98648.75
2022-12-20T15:18:33.917Z,98650.00
2022-12-20T15:21:07.819Z,98651.81
2022-12-20T15:23:36.155Z,98652.69
2022-12-20T15:26:06.437Z,98648.66
2022-12-20T15:28:34.771Z,98651.19
2022-12-20T15:31:05.737Z,98645.88
2022-12-20T15:33:35.788Z,98660.38
2022-12-20T15:36:03.843Z,98663.59
2022-12-20T15:39:03.193Z,98657.94
2022-12-20T15:41:23.104Z,98662.22
2022-12-20T15:43:55.229Z,98664.22
2022-12-20T15:46:24.707Z,98661.03
2022-12-20T15:48:52.704Z,98654.25
2022-12-20T15:51:27.937Z,98652.34
2022-12-20T15:53:56.257Z,98658.94
2022-12-20T15:56:25.650Z,98653.28
2022-12-20T15:58:53.731Z,98653.41
2022-12-20T16:01:27.024Z,98646.22
2022-12-20T16:03:55.147Z,98642.25
2022-12-20T16:06:23.169Z,98658.81
2022-12-20T16:08:51.088Z,98657.81
2022-12-20T16:11:22.433Z,98660.31
2022-12-20T16:13:50.695Z,98661.03
2022-12-20T16:16:19.627Z,98666.28
2022-12-20T16:18:49.053Z,98656.81
2022-12-20T16:21:18.824Z,98654.50
2022-12-20T16:23:47.054Z,98665.44
2022-12-20T16:26:16.332Z,98663.72
2022-12-20T16:28:44.508Z,98660.69
2022-12-20T16:31:18.764Z,98654.50
2022-12-20T16:33:48.009Z,98662.09
2022-12-20T16:36:16.099Z,98666.75
2022-12-20T16:38:44.816Z,98665.25
2022-12-20T16:41:15.223Z,98655.78
2022-12-20T16:43:43.606Z,98654.91
2022-12-20T16:46:13.646Z,98655.75
2022-12-20T16:48:42.112Z,98660.38
2022-12-20T16:51:24.702Z,98653.13
2022-12-20T16:56:41.332Z,98653.97
2022-12-20T16:59:19.135Z,98654.16
2022-12-20T17:01:49.752Z,98659.81
2022-12-20T17:04:19.388Z,98665.03
2022-12-20T17:06:49.087Z,98665.81
2022-12-20T17:09:17.358Z,98665.16
2022-12-20T17:11:45.209Z,98666.22
2022-12-20T17:14:15.403Z,98651.06
2022-12-20T17:16:43.285Z,98658.31
2022-12-20T17:19:13.927Z,98651.31
2022-12-20T17:24:31.431Z,98649.69
2022-12-20T17:27:00.414Z,98645.16
2022-12-20T17:29:30.720Z,98653.19
2022-12-20T17:31:58.618Z,98650.22
2022-12-20T17:34:27.837Z,98639.34
2022-12-20T17:36:57.460Z,98632.28
2022-12-20T17:39:26.694Z,98631.44
2022-12-20T17:41:56.725Z,98646.25
2022-12-20T17:44:26.641Z,98635.16
2022-12-20T17:46:55.838Z,98631.66
2022-12-20T17:49:24.526Z,98621.38
2022-12-20T17:51:52.938Z,98614.44
2022-12-20T17:54:34.962Z,98624.44
2022-12-20T17:57:06.018Z,98627.13
2022-12-20T17:59:33.929Z,98617.50
2022-12-20T18:02:01.962Z,98605.06
2022-12-20T18:04:30.097Z,98595.06
2022-12-20T18:06:57.995Z,98595.25
2022-12-20T18:09:25.855Z,98602.66
2022-12-20T18:11:53.748Z,98590.84
2022-12-20T18:14:23.092Z,98597.38
2022-12-20T18:16:51.288Z,98594.66
2022-12-20T18:19:21.553Z,98597.69
2022-12-20T18:21:49.465Z,98594.22
2022-12-20T18:24:18.015Z,98588.34
2022-12-20T18:26:46.541Z,98591.81
2022-12-20T18:29:14.602Z,98604.75
2022-12-20T18:31:43.995Z,98608.03
2022-12-20T18:34:11.848Z,98603.69
2022-12-20T18:36:39.715Z,98603.69
2022-12-20T18:39:09.481Z,98611.78
2022-12-20T18:41:37.804Z,98605.19
2022-12-20T18:44:07.633Z,98596.34
2022-12-20T18:46:38.357Z,98584.94
2022-12-20T18:49:07.967Z,98592.81
2022-12-20T18:51:37.533Z,98585.59
2022-12-20T18:54:06.852Z,98593.34
2022-12-20T18:56:37.359Z,98585.31
2022-12-20T18:59:11.322Z,98589.78
2022-12-20T19:01:40.700Z,98587.34
2022-12-20T19:04:11.133Z,98579.78
2022-12-20T19:06:39.724Z,98592.53
2022-12-20T19:09:11.516Z,98595.13
2022-12-20T19:11:39.889Z,98605.78
2022-12-20T19:14:08.708Z,98595.69
2022-12-20T19:16:39.596Z,98598.03
2022-12-20T19:19:09.431Z,98601.63
2022-12-20T19:21:41.578Z,98601.38
2022-12-20T19:24:11.549Z,98589.63
2022-12-20T19:26:40.101Z,98592.56
2022-12-20T19:29:08.594Z,98587.69
2022-12-20T19:31:38.168Z,98585.06
2022-12-20T19:34:08.510Z,98575.09
2022-12-20T19:36:40.215Z,98580.34
2022-12-20T19:39:13.236Z,98578.81
2022-12-20T19:41:41.273Z,98577.63
2022-12-20T19:44:09.465Z,98569.16
2022-12-20T19:46:37.386Z,98563.91
2022-12-20T19:49:05.324Z,98560.50
2022-12-20T19:51:33.391Z,98559.69
2022-12-20T19:54:02.813Z,98552.22
2022-12-20T19:56:35.135Z,98557.78
2022-12-20T19:59:03.828Z,98546.84
2022-12-20T20:01:31.661Z,98557.00
2022-12-20T20:04:01.835Z,98553.72
2022-12-20T20:06:30.031Z,98553.19
2022-12-20T20:08:59.749Z,98549.72
2022-12-20T20:11:29.699Z,98556.06
2022-12-20T20:13:57.727Z,98555.63
2022-12-20T20:16:26.443Z,98555.34
2022-12-20T20:18:54.495Z,98570.41
2022-12-20T20:21:24.338Z,98554.97
2022-12-20T20:23:53.211Z,98566.81
2022-12-20T20:26:25.497Z,98555.53
2022-12-20T20:28:55.574Z,98569.38
2022-12-20T20:31:24.192Z,98581.19
2022-12-20T20:33:52.292Z,98587.28
2022-12-20T20:36:21.774Z,98594.44
2022-12-20T20:38:49.835Z,98606.22
2022-12-20T20:41:18.538Z,98603.63
2022-12-20T20:43:46.376Z,98604.63
2022-12-20T20:46:16.980Z,98614.00
2022-12-20T20:48:45.736Z,98612.13
2022-12-20T20:51:13.740Z,98613.84
2022-12-20T20:53:41.640Z,98617.97
2022-12-20T20:56:10.137Z,98625.28
2022-12-20T20:58:38.387Z,98630.75
2022-12-20T21:01:09.417Z,98626.03
2022-12-20T21:03:40.078Z,98625.53
2022-12-20T21:08:58.528Z,98628.50
2022-12-20T21:11:26.543Z,98627.44
2022-12-20T21:13:54.936Z,98624.47
2022-12-20T21:16:24.371Z,98620.53
2022-12-20T21:18:55.244Z,98624.69
2022-12-20T21:21:24.582Z,98629.56
2022-12-20T21:23:52.791Z,98625.88
2022-12-20T21:26:22.026Z,98641.38
2022-12-20T21:28:49.865Z,98632.31
2022-12-20T21:31:20.066Z,98630.66
2022-12-20T21:33:48.066Z,98615.88
2022-12-20T21:36:19.253Z,98605.06
2022-12-20T21:38:50.371Z,98608.53
2022-12-20T21:41:20.062Z,98609.78
2022-12-20T21:43:48.035Z,98601.56
2022-12-20T21:46:16.126Z,98606.31
2022-12-20T21:48:45.590Z,98599.25
2022-12-20T21:51:18.473Z,98599.19
2022-12-20T21:53:48.234Z,98592.69
2022-12-20T21:56:19.897Z,98592.41
2022-12-20T21:58:50.724Z,98584.56
2022-12-20T22:01:21.301Z,98605.19
2022-12-20T22:03:51.142Z,98609.41
2022-12-20T22:06:20.398Z,98599.16
2022-12-20T22:08:48.663Z,98600.56
2022-12-20T22:11:19.665Z,98591.50
2022-12-20T22:13:48.019Z,98597.94
2022-12-20T22:16:17.606Z,98598.81
2022-12-20T22:18:49.038Z,98614.50
2022-12-20T22:21:17.866Z,98619.88
2022-12-20T22:23:47.432Z,98627.56
2022-12-20T22:26:17.099Z,98613.47
2022-12-20T22:28:46.924Z,98610.63
2022-12-20T22:31:15.475Z,98618.97
2022-12-20T22:33:43.596Z,98628.28
2022-12-20T22:36:15.909Z,98620.06
2022-12-20T22:38:44.755Z,98603.63
2022-12-20T22:41:16.554Z,98612.34
2022-12-20T22:43:45.827Z,98618.16
2022-12-20T22:46:17.382Z,98616.03
2022-12-20T22:48:45.938Z,98619.97
2022-12-20T22:51:16.500Z,98619.97
2022-12-20T22:53:45.319Z,98609.66
2022-12-20T22:56:15.305Z,98610.38
2022-12-20T22:58:43.827Z,98608.59
2022-12-20T23:01:15.209Z,98611.22
2022-12-20T23:03:43.529Z,98609.53
2022-12-20T23:06:13.731Z,98594.97
2022-12-20T23:08:42.286Z,98576.00
2022-12-20T23:11:34.867Z,98586.34
2022-12-20T23:14:20.650Z,98591.53
2022-12-20T23:16:48.501Z,98594.84
2022-12-20T23:19:16.519Z,98586.75
2022-12-20T23:22:02.788Z,98582.56
2022-12-20T23:24:32.887Z,98586.34
2022-12-20T23:27:02.288Z,98577.03
2022-12-20T23:29:30.903Z,98571.69
2022-12-20T23:31:58.924Z,98567.72
2022-12-20T23:34:26.883Z,98565.41
2022-12-20T23:36:54.702Z,98558.44
2022-12-20T23:39:22.576Z,98559.47
2022-12-20T23:41:50.365Z,98556.97
2022-12-20T23:44:22.318Z,98565.81
2022-12-20T23:46:50.757Z,98560.75
2022-12-20T23:49:18.691Z,98573.53
2022-12-20T23:51:46.446Z,98568.25
2022-12-20T23:54:15.210Z,98564.81
2022-12-20T23:56:42.971Z,98563.66
2022-12-20T23:59:10.777Z,98568.50
